sensor_id;sensor_type;location;lat;lon;timestamp;P1;durP1;ratioP1;P2;durP2;ratioP2
20038;SDS011;21737;42.868;25.320;2023-04-03T00:02:54;6.20;;;3.90;;
20038;SDS011;21737;42.868;25.320;2023-04-03T00:05:56;5.27;;;3.10;;
20038;SDS011;21737;42.868;25.320;2023-04-03T00:08:57;4.70;;;2.80;;
20038;SDS011;21737;42.868;25.320;2023-04-03T00:11:59;4.30;;;3.10;;
20038;SDS011;21737;42.868;25.320;2023-04-03T00:15:01;7.10;;;3.60;;
20038;SDS011;21737;42.868;25.320;2023-04-03T00:18:03;5.87;;;3.37;;
20038;SDS011;21737;42.868;25.320;2023-04-03T00:21:05;8.17;;;3.60;;
20038;SDS011;21737;42.868;25.320;2023-04-03T00:24:07;5.07;;;3.40;;
20038;SDS011;21737;42.868;25.320;2023-04-03T00:27:09;5.00;;;3.43;;
20038;SDS011;21737;42.868;25.320;2023-04-03T00:30:16;4.90;;;3.00;;
20038;SDS011;21737;42.868;25.320;2023-04-03T00:33:18;5.73;;;3.27;;
20038;SDS011;21737;42.868;25.320;2023-04-03T00:36:23;5.03;;;3.43;;
20038;SDS011;21737;42.868;25.320;2023-04-03T00:39:25;5.13;;;3.37;;
20038;SDS011;21737;42.868;25.320;2023-04-03T00:42:27;8.30;;;3.70;;
20038;SDS011;21737;42.868;25.320;2023-04-03T00:45:35;5.50;;;3.23;;
20038;SDS011;21737;42.868;25.320;2023-04-03T00:48:39;6.73;;;2.70;;
20038;SDS011;21737;42.868;25.320;2023-04-03T00:51:41;4.43;;;3.00;;
20038;SDS011;21737;42.868;25.320;2023-04-03T00:54:43;6.77;;;3.10;;
20038;SDS011;21737;42.868;25.320;2023-04-03T00:57:47;3.60;;;2.60;;
20038;SDS011;21737;42.868;25.320;2023-04-03T01:00:50;3.87;;;2.73;;
20038;SDS011;21737;42.868;25.320;2023-04-03T01:04:01;5.07;;;2.90;;
20038;SDS011;21737;42.868;25.320;2023-04-03T01:07:06;4.30;;;3.20;;
20038;SDS011;21737;42.868;25.320;2023-04-03T01:10:09;5.23;;;2.83;;
20038;SDS011;21737;42.868;25.320;2023-04-03T01:13:27;3.60;;;2.53;;
20038;SDS011;21737;42.868;25.320;2023-04-03T01:16:30;5.87;;;2.77;;
20038;SDS011;21737;42.868;25.320;2023-04-03T01:19:33;3.33;;;2.57;;
20038;SDS011;21737;42.868;25.320;2023-04-03T01:25:57;2.73;;;2.00;;
20038;SDS011;21737;42.868;25.320;2023-04-03T01:28:59;3.27;;;2.03;;
20038;SDS011;21737;42.868;25.320;2023-04-03T01:32:02;2.17;;;1.77;;
20038;SDS011;21737;42.868;25.320;2023-04-03T01:35:04;3.27;;;2.50;;
20038;SDS011;21737;42.868;25.320;2023-04-03T01:38:08;2.90;;;1.97;;
20038;SDS011;21737;42.868;25.320;2023-04-03T01:41:10;5.53;;;1.80;;
20038;SDS011;21737;42.868;25.320;2023-04-03T01:44:12;3.13;;;2.50;;
20038;SDS011;21737;42.868;25.320;2023-04-03T01:47:13;4.37;;;2.60;;
20038;SDS011;21737;42.868;25.320;2023-04-03T01:50:15;3.23;;;2.00;;
20038;SDS011;21737;42.868;25.320;2023-04-03T01:53:18;2.93;;;2.07;;
20038;SDS011;21737;42.868;25.320;2023-04-03T01:56:20;5.70;;;3.00;;
20038;SDS011;21737;42.868;25.320;2023-04-03T01:59:22;6.63;;;3.00;;
20038;SDS011;21737;42.868;25.320;2023-04-03T02:02:25;3.83;;;2.43;;
20038;SDS011;21737;42.868;25.320;2023-04-03T02:05:27;5.00;;;3.30;;
20038;SDS011;21737;42.868;25.320;2023-04-03T02:08:29;6.33;;;2.67;;
20038;SDS011;21737;42.868;25.320;2023-04-03T02:11:30;4.80;;;2.90;;
20038;SDS011;21737;42.868;25.320;2023-04-03T02:14:32;6.30;;;3.17;;
20038;SDS011;21737;42.868;25.320;2023-04-03T02:17:34;9.73;;;2.90;;
20038;SDS011;21737;42.868;25.320;2023-04-03T02:20:36;5.10;;;2.97;;
20038;SDS011;21737;42.868;25.320;2023-04-03T02:23:39;6.93;;;4.17;;
20038;SDS011;21737;42.868;25.320;2023-04-03T02:26:40;5.03;;;3.43;;
20038;SDS011;21737;42.868;25.320;2023-04-03T02:29:42;8.23;;;4.80;;
20038;SDS011;21737;42.868;25.320;2023-04-03T02:32:44;8.17;;;4.07;;
20038;SDS011;21737;42.868;25.320;2023-04-03T02:35:46;4.30;;;2.10;;
20038;SDS011;21737;42.868;25.320;2023-04-03T02:38:55;4.00;;;2.57;;
20038;SDS011;21737;42.868;25.320;2023-04-03T02:41:57;2.93;;;2.57;;
20038;SDS011;21737;42.868;25.320;2023-04-03T02:44:59;6.60;;;3.87;;
20038;SDS011;21737;42.868;25.320;2023-04-03T02:48:01;7.57;;;4.03;;
20038;SDS011;21737;42.868;25.320;2023-04-03T02:51:03;3.90;;;2.90;;
20038;SDS011;21737;42.868;25.320;2023-04-03T02:54:05;5.60;;;3.20;;
20038;SDS011;21737;42.868;25.320;2023-04-03T02:57:09;5.17;;;2.87;;
20038;SDS011;21737;42.868;25.320;2023-04-03T03:00:11;5.03;;;3.30;;
20038;SDS011;21737;42.868;25.320;2023-04-03T03:03:13;3.63;;;2.70;;
20038;SDS011;21737;42.868;25.320;2023-04-03T03:06:16;11.17;;;4.17;;
20038;SDS011;21737;42.868;25.320;2023-04-03T03:09:18;5.33;;;3.50;;
20038;SDS011;21737;42.868;25.320;2023-04-03T03:12:20;5.10;;;3.60;;
20038;SDS011;21737;42.868;25.320;2023-04-03T03:15:23;4.97;;;3.60;;
20038;SDS011;21737;42.868;25.320;2023-04-03T03:18:25;8.07;;;3.60;;
20038;SDS011;21737;42.868;25.320;2023-04-03T03:21:27;5.03;;;3.60;;
20038;SDS011;21737;42.868;25.320;2023-04-03T03:24:29;6.33;;;3.50;;
20038;SDS011;21737;42.868;25.320;2023-04-03T03:27:31;6.07;;;3.80;;
20038;SDS011;21737;42.868;25.320;2023-04-03T03:30:33;9.40;;;3.70;;
20038;SDS011;21737;42.868;25.320;2023-04-03T03:33:35;6.87;;;3.87;;
20038;SDS011;21737;42.868;25.320;2023-04-03T03:36:36;5.63;;;3.10;;
20038;SDS011;21737;42.868;25.320;2023-04-03T03:39:38;6.93;;;3.13;;
20038;SDS011;21737;42.868;25.320;2023-04-03T03:42:40;4.87;;;3.37;;
20038;SDS011;21737;42.868;25.320;2023-04-03T03:45:42;6.00;;;4.00;;
20038;SDS011;21737;42.868;25.320;2023-04-03T03:48:43;5.10;;;3.93;;
20038;SDS011;21737;42.868;25.320;2023-04-03T03:51:45;10.00;;;4.67;;
20038;SDS011;21737;42.868;25.320;2023-04-03T03:54:48;6.47;;;4.77;;
20038;SDS011;21737;42.868;25.320;2023-04-03T03:57:50;8.17;;;4.87;;
20038;SDS011;21737;42.868;25.320;2023-04-03T04:00:52;6.83;;;4.40;;
20038;SDS011;21737;42.868;25.320;2023-04-03T04:03:54;7.70;;;5.20;;
20038;SDS011;21737;42.868;25.320;2023-04-03T04:07:01;7.80;;;4.87;;
20038;SDS011;21737;42.868;25.320;2023-04-03T04:10:04;8.73;;;5.47;;
20038;SDS011;21737;42.868;25.320;2023-04-03T04:13:06;14.47;;;7.50;;
20038;SDS011;21737;42.868;25.320;2023-04-03T04:16:08;18.43;;;9.67;;
20038;SDS011;21737;42.868;25.320;2023-04-03T04:19:12;14.47;;;8.27;;
20038;SDS011;21737;42.868;25.320;2023-04-03T04:22:14;15.37;;;9.10;;
20038;SDS011;21737;42.868;25.320;2023-04-03T04:25:16;13.37;;;8.13;;
20038;SDS011;21737;42.868;25.320;2023-04-03T04:28:18;13.27;;;7.13;;
20038;SDS011;21737;42.868;25.320;2023-04-03T04:31:22;9.40;;;5.43;;
20038;SDS011;21737;42.868;25.320;2023-04-03T04:34:25;8.30;;;5.43;;
20038;SDS011;21737;42.868;25.320;2023-04-03T04:37:27;10.57;;;5.13;;
20038;SDS011;21737;42.868;25.320;2023-04-03T04:40:29;7.00;;;4.60;;
20038;SDS011;21737;42.868;25.320;2023-04-03T04:43:32;21.23;;;7.07;;
20038;SDS011;21737;42.868;25.320;2023-04-03T04:46:35;14.27;;;5.73;;
20038;SDS011;21737;42.868;25.320;2023-04-03T04:49:38;17.63;;;7.97;;
20038;SDS011;21737;42.868;25.320;2023-04-03T04:52:40;12.43;;;6.13;;
20038;SDS011;21737;42.868;25.320;2023-04-03T04:55:43;13.27;;;6.47;;
20038;SDS011;21737;42.868;25.320;2023-04-03T04:58:45;12.13;;;6.37;;
20038;SDS011;21737;42.868;25.320;2023-04-03T05:01:47;11.57;;;6.80;;
20038;SDS011;21737;42.868;25.320;2023-04-03T05:04:50;11.20;;;6.37;;
20038;SDS011;21737;42.868;25.320;2023-04-03T05:07:57;5.77;;;3.50;;
20038;SDS011;21737;42.868;25.320;2023-04-03T05:11:00;8.30;;;4.67;;
20038;SDS011;21737;42.868;25.320;2023-04-03T05:14:02;12.97;;;5.00;;
20038;SDS011;21737;42.868;25.320;2023-04-03T05:17:07;10.03;;;5.07;;
20038;SDS011;21737;42.868;25.320;2023-04-03T05:20:16;8.60;;;4.23;;
20038;SDS011;21737;42.868;25.320;2023-04-03T05:23:22;6.43;;;4.63;;
20038;SDS011;21737;42.868;25.320;2023-04-03T05:26:24;9.40;;;5.10;;
20038;SDS011;21737;42.868;25.320;2023-04-03T05:29:27;15.77;;;6.70;;
20038;SDS011;21737;42.868;25.320;2023-04-03T05:32:31;14.23;;;6.50;;
20038;SDS011;21737;42.868;25.320;2023-04-03T05:35:50;16.90;;;7.33;;
20038;SDS011;21737;42.868;25.320;2023-04-03T05:38:57;10.83;;;5.33;;
20038;SDS011;21737;42.868;25.320;2023-04-03T05:42:00;22.80;;;8.33;;
20038;SDS011;21737;42.868;25.320;2023-04-03T05:45:02;14.63;;;5.80;;
20038;SDS011;21737;42.868;25.320;2023-04-03T05:48:04;10.53;;;4.97;;
20038;SDS011;21737;42.868;25.320;2023-04-03T05:51:06;6.90;;;3.53;;
20038;SDS011;21737;42.868;25.320;2023-04-03T05:57:16;9.73;;;5.30;;
20038;SDS011;21737;42.868;25.320;2023-04-03T06:00:20;10.23;;;5.00;;
20038;SDS011;21737;42.868;25.320;2023-04-03T06:03:31;11.43;;;5.93;;
20038;SDS011;21737;42.868;25.320;2023-04-03T06:06:43;12.33;;;6.77;;
20038;SDS011;21737;42.868;25.320;2023-04-03T06:09:45;13.07;;;7.50;;
20038;SDS011;21737;42.868;25.320;2023-04-03T06:12:48;14.53;;;6.47;;
20038;SDS011;21737;42.868;25.320;2023-04-03T06:15:49;12.00;;;4.80;;
20038;SDS011;21737;42.868;25.320;2023-04-03T06:18:51;12.53;;;5.33;;
20038;SDS011;21737;42.868;25.320;2023-04-03T06:21:53;12.40;;;5.13;;
20038;SDS011;21737;42.868;25.320;2023-04-03T06:24:55;11.33;;;4.80;;
20038;SDS011;21737;42.868;25.320;2023-04-03T06:27:57;13.33;;;5.77;;
20038;SDS011;21737;42.868;25.320;2023-04-03T06:30:59;11.27;;;5.30;;
20038;SDS011;21737;42.868;25.320;2023-04-03T06:34:00;8.93;;;4.80;;
20038;SDS011;21737;42.868;25.320;2023-04-03T06:37:02;10.93;;;5.00;;
20038;SDS011;21737;42.868;25.320;2023-04-03T06:40:04;10.07;;;5.50;;
20038;SDS011;21737;42.868;25.320;2023-04-03T06:43:06;8.70;;;5.60;;
20038;SDS011;21737;42.868;25.320;2023-04-03T06:46:15;17.73;;;8.60;;
20038;SDS011;21737;42.868;25.320;2023-04-03T06:49:17;11.83;;;6.17;;
20038;SDS011;21737;42.868;25.320;2023-04-03T06:52:19;7.53;;;4.93;;
20038;SDS011;21737;42.868;25.320;2023-04-03T06:55:22;8.97;;;5.23;;
20038;SDS011;21737;42.868;25.320;2023-04-03T06:58:23;14.40;;;5.23;;
20038;SDS011;21737;42.868;25.320;2023-04-03T07:01:26;9.33;;;5.37;;
20038;SDS011;21737;42.868;25.320;2023-04-03T07:04:29;16.83;;;5.43;;
20038;SDS011;21737;42.868;25.320;2023-04-03T07:07:31;25.07;;;7.60;;
20038;SDS011;21737;42.868;25.320;2023-04-03T07:10:34;9.47;;;4.30;;
20038;SDS011;21737;42.868;25.320;2023-04-03T07:13:36;35.10;;;11.93;;
20038;SDS011;21737;42.868;25.320;2023-04-03T07:16:37;10.97;;;6.47;;
20038;SDS011;21737;42.868;25.320;2023-04-03T07:19:42;2.53;;;2.00;;
20038;SDS011;21737;42.868;25.320;2023-04-03T07:22:43;6.73;;;3.20;;
20038;SDS011;21737;42.868;25.320;2023-04-03T07:25:46;4.53;;;2.67;;
20038;SDS011;21737;42.868;25.320;2023-04-03T07:28:48;5.20;;;3.07;;
20038;SDS011;21737;42.868;25.320;2023-04-03T07:31:50;2.80;;;1.50;;
20038;SDS011;21737;42.868;25.320;2023-04-03T07:34:51;6.07;;;2.00;;
20038;SDS011;21737;42.868;25.320;2023-04-03T07:37:53;2.17;;;1.47;;
20038;SDS011;21737;42.868;25.320;2023-04-03T07:40:55;2.87;;;1.63;;
20038;SDS011;21737;42.868;25.320;2023-04-03T07:43:57;2.23;;;1.70;;
20038;SDS011;21737;42.868;25.320;2023-04-03T07:46:58;2.60;;;1.57;;
20038;SDS011;21737;42.868;25.320;2023-04-03T07:50:01;3.33;;;2.00;;
20038;SDS011;21737;42.868;25.320;2023-04-03T07:53:03;3.33;;;1.70;;
20038;SDS011;21737;42.868;25.320;2023-04-03T07:56:05;2.70;;;1.60;;
20038;SDS011;21737;42.868;25.320;2023-04-03T07:59:07;6.30;;;2.70;;
20038;SDS011;21737;42.868;25.320;2023-04-03T08:02:09;1.63;;;1.50;;
20038;SDS011;21737;42.868;25.320;2023-04-03T08:05:11;4.33;;;2.77;;
20038;SDS011;21737;42.868;25.320;2023-04-03T08:08:14;11.87;;;3.00;;
20038;SDS011;21737;42.868;25.320;2023-04-03T08:11:18;7.20;;;2.10;;
20038;SDS011;21737;42.868;25.320;2023-04-03T08:14:20;3.40;;;2.00;;
20038;SDS011;21737;42.868;25.320;2023-04-03T08:17:22;11.70;;;8.17;;
20038;SDS011;21737;42.868;25.320;2023-04-03T08:20:24;5.20;;;1.87;;
20038;SDS011;21737;42.868;25.320;2023-04-03T08:23:26;3.00;;;1.87;;
20038;SDS011;21737;42.868;25.320;2023-04-03T08:26:28;4.10;;;1.67;;
20038;SDS011;21737;42.868;25.320;2023-04-03T08:29:29;10.50;;;5.03;;
20038;SDS011;21737;42.868;25.320;2023-04-03T08:32:34;6.23;;;2.47;;
20038;SDS011;21737;42.868;25.320;2023-04-03T08:35:40;2.87;;;1.40;;
20038;SDS011;21737;42.868;25.320;2023-04-03T08:38:42;3.97;;;1.53;;
20038;SDS011;21737;42.868;25.320;2023-04-03T08:41:44;12.13;;;1.93;;
20038;SDS011;21737;42.868;25.320;2023-04-03T08:44:52;1.97;;;1.10;;
20038;SDS011;21737;42.868;25.320;2023-04-03T08:50:59;6.77;;;5.83;;
20038;SDS011;21737;42.868;25.320;2023-04-03T08:54:04;6.23;;;1.20;;
20038;SDS011;21737;42.868;25.320;2023-04-03T08:57:09;2.00;;;1.20;;
20038;SDS011;21737;42.868;25.320;2023-04-03T09:03:16;3.20;;;2.10;;
20038;SDS011;21737;42.868;25.320;2023-04-03T09:06:26;3.30;;;2.33;;
20038;SDS011;21737;42.868;25.320;2023-04-03T09:09:41;6.03;;;2.93;;
20038;SDS011;21737;42.868;25.320;2023-04-03T09:12:49;1.73;;;1.50;;
20038;SDS011;21737;42.868;25.320;2023-04-03T09:15:52;7.23;;;4.60;;
20038;SDS011;21737;42.868;25.320;2023-04-03T09:19:02;3.90;;;2.53;;
20038;SDS011;21737;42.868;25.320;2023-04-03T09:22:11;2.90;;;1.90;;
20038;SDS011;21737;42.868;25.320;2023-04-03T09:25:16;5.37;;;2.20;;
20038;SDS011;21737;42.868;25.320;2023-04-03T09:28:18;7.67;;;2.23;;
20038;SDS011;21737;42.868;25.320;2023-04-03T09:34:23;8.40;;;2.87;;
20038;SDS011;21737;42.868;25.320;2023-04-03T09:37:36;7.17;;;4.20;;
20038;SDS011;21737;42.868;25.320;2023-04-03T09:40:42;5.00;;;2.30;;
20038;SDS011;21737;42.868;25.320;2023-04-03T09:43:51;4.97;;;1.80;;
20038;SDS011;21737;42.868;25.320;2023-04-03T09:46:53;5.37;;;2.57;;
20038;SDS011;21737;42.868;25.320;2023-04-03T09:56:37;8.07;;;2.47;;
20038;SDS011;21737;42.868;25.320;2023-04-03T09:59:46;6.90;;;2.27;;
20038;SDS011;21737;42.868;25.320;2023-04-03T10:02:55;3.10;;;2.07;;
20038;SDS011;21737;42.868;25.320;2023-04-03T10:05:59;3.33;;;2.37;;
20038;SDS011;21737;42.868;25.320;2023-04-03T10:09:06;3.70;;;1.83;;
20038;SDS011;21737;42.868;25.320;2023-04-03T10:12:11;6.90;;;2.10;;
20038;SDS011;21737;42.868;25.320;2023-04-03T10:15:16;5.50;;;1.90;;
20038;SDS011;21737;42.868;25.320;2023-04-03T10:28:17;5.60;;;2.20;;
20038;SDS011;21737;42.868;25.320;2023-04-03T10:34:37;1.40;;;1.30;;
20038;SDS011;21737;42.868;25.320;2023-04-03T10:47:07;1.90;;;1.40;;
20038;SDS011;21737;42.868;25.320;2023-04-03T10:56:37;3.67;;;2.57;;
20038;SDS011;21737;42.868;25.320;2023-04-03T10:59:50;5.37;;;2.50;;
20038;SDS011;21737;42.868;25.320;2023-04-03T11:02:56;2.57;;;2.27;;
20038;SDS011;21737;42.868;25.320;2023-04-03T11:05:59;3.93;;;2.30;;
20038;SDS011;21737;42.868;25.320;2023-04-03T11:09:05;3.20;;;2.50;;
20038;SDS011;21737;42.868;25.320;2023-04-03T11:12:12;2.50;;;1.40;;
20038;SDS011;21737;42.868;25.320;2023-04-03T11:15:16;2.77;;;2.07;;
20038;SDS011;21737;42.868;25.320;2023-04-03T11:18:21;3.50;;;2.90;;
20038;SDS011;21737;42.868;25.320;2023-04-03T11:21:26;6.10;;;3.97;;
20038;SDS011;21737;42.868;25.320;2023-04-03T11:24:29;3.00;;;2.00;;
20038;SDS011;21737;42.868;25.320;2023-04-03T11:27:43;1.20;;;1.10;;
20038;SDS011;21737;42.868;25.320;2023-04-03T11:30:59;5.13;;;1.37;;
20038;SDS011;21737;42.868;25.320;2023-04-03T11:37:15;4.73;;;1.40;;
20038;SDS011;21737;42.868;25.320;2023-04-03T11:40:24;4.77;;;1.80;;
20038;SDS011;21737;42.868;25.320;2023-04-03T11:43:30;4.27;;;1.30;;
20038;SDS011;21737;42.868;25.320;2023-04-03T11:46:51;5.00;;;1.87;;
20038;SDS011;21737;42.868;25.320;2023-04-03T11:53:02;3.30;;;1.80;;
20038;SDS011;21737;42.868;25.320;2023-04-03T11:59:24;2.37;;;1.70;;
20038;SDS011;21737;42.868;25.320;2023-04-03T12:02:36;2.50;;;2.00;;
20038;SDS011;21737;42.868;25.320;2023-04-03T12:05:55;4.80;;;2.47;;
20038;SDS011;21737;42.868;25.320;2023-04-03T12:08:58;3.43;;;1.93;;
20038;SDS011;21737;42.868;25.320;2023-04-03T12:12:01;3.67;;;2.40;;
20038;SDS011;21737;42.868;25.320;2023-04-03T12:15:18;3.37;;;2.40;;
20038;SDS011;21737;42.868;25.320;2023-04-03T12:24:49;2.60;;;2.40;;
20038;SDS011;21737;42.868;25.320;2023-04-03T12:27:51;3.23;;;2.67;;
20038;SDS011;21737;42.868;25.320;2023-04-03T12:30:54;4.37;;;3.50;;
20038;SDS011;21737;42.868;25.320;2023-04-03T12:34:18;4.50;;;3.27;;
20038;SDS011;21737;42.868;25.320;2023-04-03T12:44:06;4.27;;;3.10;;
20038;SDS011;21737;42.868;25.320;2023-04-03T12:50:34;3.03;;;2.47;;
20038;SDS011;21737;42.868;25.320;2023-04-03T12:53:36;3.20;;;2.60;;
20038;SDS011;21737;42.868;25.320;2023-04-03T12:56:39;3.47;;;2.63;;
20038;SDS011;21737;42.868;25.320;2023-04-03T12:59:42;6.23;;;3.70;;
20038;SDS011;21737;42.868;25.320;2023-04-03T13:02:47;3.90;;;2.87;;
20038;SDS011;21737;42.868;25.320;2023-04-03T13:05:49;3.03;;;2.50;;
20038;SDS011;21737;42.868;25.320;2023-04-03T13:08:56;3.13;;;2.53;;
20038;SDS011;21737;42.868;25.320;2023-04-03T13:15:15;4.67;;;3.57;;
20038;SDS011;21737;42.868;25.320;2023-04-03T13:18:36;6.80;;;4.23;;
20038;SDS011;21737;42.868;25.320;2023-04-03T13:21:38;7.53;;;4.10;;
20038;SDS011;21737;42.868;25.320;2023-04-03T13:24:39;7.20;;;4.47;;
20038;SDS011;21737;42.868;25.320;2023-04-03T13:27:41;7.50;;;5.10;;
20038;SDS011;21737;42.868;25.320;2023-04-03T13:30:56;10.47;;;5.97;;
20038;SDS011;21737;42.868;25.320;2023-04-03T13:34:02;5.10;;;4.60;;
20038;SDS011;21737;42.868;25.320;2023-04-03T13:37:04;7.17;;;5.60;;
20038;SDS011;21737;42.868;25.320;2023-04-03T13:43:19;13.83;;;7.63;;
20038;SDS011;21737;42.868;25.320;2023-04-03T13:46:23;15.70;;;9.43;;
20038;SDS011;21737;42.868;25.320;2023-04-03T13:49:35;10.23;;;6.27;;
20038;SDS011;21737;42.868;25.320;2023-04-03T13:52:41;6.03;;;3.67;;
20038;SDS011;21737;42.868;25.320;2023-04-03T13:59:02;3.83;;;3.30;;
20038;SDS011;21737;42.868;25.320;2023-04-03T14:05:10;8.77;;;6.27;;
20038;SDS011;21737;42.868;25.320;2023-04-03T14:08:12;11.17;;;6.87;;
20038;SDS011;21737;42.868;25.320;2023-04-03T14:11:14;11.20;;;6.73;;
20038;SDS011;21737;42.868;25.320;2023-04-03T14:14:21;7.17;;;5.97;;
20038;SDS011;21737;42.868;25.320;2023-04-03T14:17:24;11.20;;;6.20;;
20038;SDS011;21737;42.868;25.320;2023-04-03T14:20:27;11.40;;;7.43;;
20038;SDS011;21737;42.868;25.320;2023-04-03T14:23:29;36.37;;;24.50;;
20038;SDS011;21737;42.868;25.320;2023-04-03T14:26:32;17.27;;;9.30;;
20038;SDS011;21737;42.868;25.320;2023-04-03T14:29:34;16.70;;;10.53;;
20038;SDS011;21737;42.868;25.320;2023-04-03T14:32:36;18.33;;;12.70;;
20038;SDS011;21737;42.868;25.320;2023-04-03T14:35:38;24.00;;;18.40;;
20038;SDS011;21737;42.868;25.320;2023-04-03T14:38:40;21.77;;;15.13;;
20038;SDS011;21737;42.868;25.320;2023-04-03T14:41:42;30.53;;;20.10;;
20038;SDS011;21737;42.868;25.320;2023-04-03T14:44:44;27.37;;;17.60;;
20038;SDS011;21737;42.868;25.320;2023-04-03T14:47:53;27.83;;;20.27;;
20038;SDS011;21737;42.868;25.320;2023-04-03T14:50:55;24.47;;;17.20;;
20038;SDS011;21737;42.868;25.320;2023-04-03T14:54:10;22.20;;;14.90;;
20038;SDS011;21737;42.868;25.320;2023-04-03T14:57:14;18.50;;;12.20;;
20038;SDS011;21737;42.868;25.320;2023-04-03T15:00:18;31.73;;;18.80;;
20038;SDS011;21737;42.868;25.320;2023-04-03T15:03:20;28.30;;;16.50;;
20038;SDS011;21737;42.868;25.320;2023-04-03T15:06:23;17.63;;;12.83;;
20038;SDS011;21737;42.868;25.320;2023-04-03T15:09:26;32.33;;;20.40;;
20038;SDS011;21737;42.868;25.320;2023-04-03T15:12:28;27.87;;;15.37;;
20038;SDS011;21737;42.868;25.320;2023-04-03T15:15:30;11.57;;;9.63;;
20038;SDS011;21737;42.868;25.320;2023-04-03T15:18:35;31.47;;;17.70;;
20038;SDS011;21737;42.868;25.320;2023-04-03T15:21:39;18.50;;;12.53;;
20038;SDS011;21737;42.868;25.320;2023-04-03T15:24:41;26.13;;;16.53;;
20038;SDS011;21737;42.868;25.320;2023-04-03T15:27:43;24.37;;;17.00;;
20038;SDS011;21737;42.868;25.320;2023-04-03T15:30:45;23.27;;;15.87;;
20038;SDS011;21737;42.868;25.320;2023-04-03T15:33:47;25.70;;;17.60;;
20038;SDS011;21737;42.868;25.320;2023-04-03T15:36:49;24.00;;;16.33;;
20038;SDS011;21737;42.868;25.320;2023-04-03T15:39:51;23.60;;;16.63;;
20038;SDS011;21737;42.868;25.320;2023-04-03T15:42:53;23.77;;;17.57;;
20038;SDS011;21737;42.868;25.320;2023-04-03T15:45:58;24.40;;;16.43;;
20038;SDS011;21737;42.868;25.320;2023-04-03T15:49:00;24.23;;;17.00;;
20038;SDS011;21737;42.868;25.320;2023-04-03T15:52:02;24.40;;;17.17;;
20038;SDS011;21737;42.868;25.320;2023-04-03T15:55:04;19.70;;;15.30;;
20038;SDS011;21737;42.868;25.320;2023-04-03T15:58:07;23.27;;;16.27;;
20038;SDS011;21737;42.868;25.320;2023-04-03T16:01:09;37.63;;;24.27;;
20038;SDS011;21737;42.868;25.320;2023-04-03T16:04:12;25.03;;;16.77;;
20038;SDS011;21737;42.868;25.320;2023-04-03T16:07:16;19.93;;;14.50;;
20038;SDS011;21737;42.868;25.320;2023-04-03T16:10:18;22.50;;;16.07;;
20038;SDS011;21737;42.868;25.320;2023-04-03T16:13:19;32.90;;;22.27;;
20038;SDS011;21737;42.868;25.320;2023-04-03T16:16:22;32.67;;;21.67;;
20038;SDS011;21737;42.868;25.320;2023-04-03T16:19:25;32.33;;;21.30;;
20038;SDS011;21737;42.868;25.320;2023-04-03T16:22:27;38.27;;;26.00;;
20038;SDS011;21737;42.868;25.320;2023-04-03T16:25:29;28.40;;;21.00;;
20038;SDS011;21737;42.868;25.320;2023-04-03T16:28:35;23.23;;;15.90;;
20038;SDS011;21737;42.868;25.320;2023-04-03T16:31:37;60.50;;;36.07;;
20038;SDS011;21737;42.868;25.320;2023-04-03T16:34:39;83.13;;;46.43;;
20038;SDS011;21737;42.868;25.320;2023-04-03T16:37:42;43.33;;;30.63;;
20038;SDS011;21737;42.868;25.320;2023-04-03T16:40:48;66.37;;;41.30;;
20038;SDS011;21737;42.868;25.320;2023-04-03T16:43:49;36.50;;;25.20;;
20038;SDS011;21737;42.868;25.320;2023-04-03T16:46:52;35.67;;;23.43;;
20038;SDS011;21737;42.868;25.320;2023-04-03T16:49:54;29.23;;;19.87;;
20038;SDS011;21737;42.868;25.320;2023-04-03T16:52:55;30.33;;;21.03;;
20038;SDS011;21737;42.868;25.320;2023-04-03T16:55:58;30.80;;;22.37;;
20038;SDS011;21737;42.868;25.320;2023-04-03T16:58:59;39.13;;;25.37;;
20038;SDS011;21737;42.868;25.320;2023-04-03T17:02:01;24.17;;;17.00;;
20038;SDS011;21737;42.868;25.320;2023-04-03T17:05:04;35.63;;;25.00;;
20038;SDS011;21737;42.868;25.320;2023-04-03T17:08:06;37.67;;;25.03;;
20038;SDS011;21737;42.868;25.320;2023-04-03T17:11:08;33.20;;;20.40;;
20038;SDS011;21737;42.868;25.320;2023-04-03T17:14:09;29.43;;;20.73;;
20038;SDS011;21737;42.868;25.320;2023-04-03T17:17:11;16.43;;;11.87;;
20038;SDS011;21737;42.868;25.320;2023-04-03T17:20:13;10.13;;;6.93;;
20038;SDS011;21737;42.868;25.320;2023-04-03T17:23:15;13.20;;;9.20;;
20038;SDS011;21737;42.868;25.320;2023-04-03T17:26:17;18.20;;;12.67;;
20038;SDS011;21737;42.868;25.320;2023-04-03T17:29:19;9.33;;;6.93;;
20038;SDS011;21737;42.868;25.320;2023-04-03T17:32:21;10.50;;;6.83;;
20038;SDS011;21737;42.868;25.320;2023-04-03T17:35:23;22.60;;;15.00;;
20038;SDS011;21737;42.868;25.320;2023-04-03T17:38:25;42.10;;;19.77;;
20038;SDS011;21737;42.868;25.320;2023-04-03T17:41:27;35.50;;;18.17;;
20038;SDS011;21737;42.868;25.320;2023-04-03T17:44:29;31.10;;;17.20;;
20038;SDS011;21737;42.868;25.320;2023-04-03T17:47:30;32.63;;;18.70;;
20038;SDS011;21737;42.868;25.320;2023-04-03T17:50:32;25.73;;;15.77;;
20038;SDS011;21737;42.868;25.320;2023-04-03T17:53:34;24.90;;;15.67;;
20038;SDS011;21737;42.868;25.320;2023-04-03T17:56:36;27.97;;;19.43;;
20038;SDS011;21737;42.868;25.320;2023-04-03T17:59:38;31.77;;;21.27;;
20038;SDS011;21737;42.868;25.320;2023-04-03T18:02:40;31.50;;;21.10;;
20038;SDS011;21737;42.868;25.320;2023-04-03T18:05:42;32.13;;;22.03;;
20038;SDS011;21737;42.868;25.320;2023-04-03T18:08:48;31.73;;;20.83;;
20038;SDS011;21737;42.868;25.320;2023-04-03T18:11:50;20.37;;;14.77;;
20038;SDS011;21737;42.868;25.320;2023-04-03T18:14:52;22.43;;;14.70;;
20038;SDS011;21737;42.868;25.320;2023-04-03T18:17:54;23.63;;;15.93;;
20038;SDS011;21737;42.868;25.320;2023-04-03T18:20:58;18.80;;;11.00;;
20038;SDS011;21737;42.868;25.320;2023-04-03T18:24:00;15.60;;;10.80;;
20038;SDS011;21737;42.868;25.320;2023-04-03T18:27:13;11.00;;;7.53;;
20038;SDS011;21737;42.868;25.320;2023-04-03T18:30:16;14.93;;;10.70;;
20038;SDS011;21737;42.868;25.320;2023-04-03T18:33:18;17.87;;;12.07;;
20038;SDS011;21737;42.868;25.320;2023-04-03T18:36:20;33.33;;;16.83;;
20038;SDS011;21737;42.868;25.320;2023-04-03T18:39:22;16.37;;;9.83;;
20038;SDS011;21737;42.868;25.320;2023-04-03T18:42:26;14.40;;;9.27;;
20038;SDS011;21737;42.868;25.320;2023-04-03T18:45:28;15.50;;;10.63;;
20038;SDS011;21737;42.868;25.320;2023-04-03T18:48:32;13.13;;;10.13;;
20038;SDS011;21737;42.868;25.320;2023-04-03T18:51:33;66.87;;;32.40;;
20038;SDS011;21737;42.868;25.320;2023-04-03T18:54:35;40.80;;;22.93;;
20038;SDS011;21737;42.868;25.320;2023-04-03T18:57:37;49.30;;;27.07;;
20038;SDS011;21737;42.868;25.320;2023-04-03T19:00:39;99.67;;;49.00;;
20038;SDS011;21737;42.868;25.320;2023-04-03T19:03:41;51.80;;;28.90;;
20038;SDS011;21737;42.868;25.320;2023-04-03T19:06:43;31.67;;;18.33;;
20038;SDS011;21737;42.868;25.320;2023-04-03T19:09:46;35.10;;;20.63;;
20038;SDS011;21737;42.868;25.320;2023-04-03T19:12:48;32.67;;;20.23;;
20038;SDS011;21737;42.868;25.320;2023-04-03T19:15:50;31.30;;;19.47;;
20038;SDS011;21737;42.868;25.320;2023-04-03T19:18:53;23.47;;;14.43;;
20038;SDS011;21737;42.868;25.320;2023-04-03T19:21:54;12.87;;;8.90;;
20038;SDS011;21737;42.868;25.320;2023-04-03T19:24:56;23.53;;;15.30;;
20038;SDS011;21737;42.868;25.320;2023-04-03T19:27:58;33.30;;;20.43;;
20038;SDS011;21737;42.868;25.320;2023-04-03T19:31:01;25.43;;;17.57;;